createdAt,value
2018-01-11T00:02:01.467Z,93.20
2018-01-11T00:04:28.944Z,93.70
2018-01-11T00:06:56.451Z,94.10
2018-01-11T00:09:23.952Z,94.40
2018-01-11T00:11:51.841Z,94.50
2018-01-11T00:14:19.735Z,94.50
2018-01-11T00:16:47.771Z,94.70
2018-01-11T00:19:15.296Z,94.70
2018-01-11T00:21:42.785Z,94.80
2018-01-11T00:24:10.279Z,95.00
2018-01-11T00:26:38.174Z,95.20
2018-01-11T00:29:06.143Z,95.10
2018-01-11T00:31:33.623Z,95.00
2018-01-11T00:34:01.212Z,94.90
2018-01-11T00:36:28.711Z,94.80
2018-01-11T00:38:56.594Z,94.60
2018-01-11T00:41:24.091Z,94.60
2018-01-11T00:43:51.977Z,94.40
2018-01-11T00:46:19.880Z,94.40
2018-01-11T00:48:47.759Z,94.30
2018-01-11T00:51:15.265Z,94.30
2018-01-11T00:53:42.752Z,94.60
2018-01-11T00:56:10.278Z,94.40
2018-01-11T00:58:37.769Z,94.60
2018-01-11T01:01:05.262Z,94.30
2018-01-11T01:03:32.766Z,94.00
2018-01-11T01:06:00.655Z,94.30
2018-01-11T01:08:28.155Z,94.30
2018-01-11T01:10:56.042Z,94.30
2018-01-11T01:13:24.008Z,94.40
2018-01-11T01:15:51.595Z,94.40
2018-01-11T01:18:19.125Z,94.20
2018-01-11T01:20:47.545Z,94.30
2018-01-11T01:23:15.041Z,94.00
2018-01-11T01:25:42.553Z,94.10
2018-01-11T01:28:10.031Z,94.30
2018-01-11T01:30:37.633Z,93.90
2018-01-11T01:33:05.213Z,93.60
2018-01-11T01:35:32.797Z,93.60
2018-01-11T01:38:00.275Z,93.80
2018-01-11T01:40:27.801Z,93.50
2018-01-11T01:42:55.288Z,93.80
2018-01-11T01:45:22.783Z,94.10
2018-01-11T01:47:50.315Z,94.10
2018-01-11T01:50:17.892Z,94.20
2018-01-11T01:52:45.485Z,94.10
2018-01-11T01:55:12.980Z,94.10
2018-01-11T01:57:40.875Z,94.40
2018-01-11T02:00:08.761Z,94.10
2018-01-11T02:02:36.651Z,94.10
2018-01-11T02:05:04.252Z,94.10
2018-01-11T02:07:32.153Z,94.10
2018-01-11T02:09:59.648Z,94.10
2018-01-11T02:12:27.139Z,93.90
2018-01-11T02:14:54.635Z,93.90
2018-01-11T02:17:22.123Z,94.00
2018-01-11T02:19:49.733Z,94.50
2018-01-11T02:22:17.310Z,95.40
2018-01-11T02:24:44.811Z,95.50
2018-01-11T02:27:12.399Z,95.30
2018-01-11T02:29:39.919Z,94.80
2018-01-11T02:32:07.413Z,94.50
2018-01-11T02:34:34.945Z,94.50
2018-01-11T02:37:02.520Z,94.70
2018-01-11T02:39:30.019Z,94.50
2018-01-11T02:41:57.531Z,94.40
2018-01-11T02:46:58.043Z,94.10
2018-01-11T02:49:25.523Z,94.40
2018-01-11T02:51:53.020Z,94.50
2018-01-11T02:54:20.526Z,94.30
2018-01-11T02:56:48.027Z,94.20
2018-01-11T02:59:15.526Z,94.30
2018-01-11T03:01:43.491Z,94.10
2018-01-11T03:04:10.983Z,94.10
2018-01-11T03:06:38.575Z,94.00
2018-01-11T03:09:06.467Z,94.10
2018-01-11T03:11:34.352Z,94.10
2018-01-11T03:14:01.931Z,94.20
2018-01-11T03:16:29.425Z,94.10
2018-01-11T03:18:56.927Z,94.30
2018-01-11T03:21:24.821Z,94.40
2018-01-11T03:23:52.349Z,94.40
2018-01-11T03:26:19.841Z,94.40
2018-01-11T03:28:47.325Z,94.40
2018-01-11T03:31:14.834Z,94.60
2018-01-11T03:33:42.727Z,94.10
2018-01-11T03:36:10.219Z,94.10
2018-01-11T03:38:38.197Z,93.90
2018-01-11T03:41:05.706Z,93.80
2018-01-11T03:43:33.594Z,93.70
2018-01-11T03:46:01.502Z,93.80
2018-01-11T03:48:28.980Z,93.80
2018-01-11T03:50:56.850Z,94.20
2018-01-11T03:53:24.363Z,94.20
2018-01-11T03:55:51.909Z,94.00
2018-01-11T03:58:19.416Z,94.10
2018-01-11T04:00:46.911Z,94.00
2018-01-11T04:03:14.420Z,94.10
2018-01-11T04:05:41.949Z,94.30
2018-01-11T04:08:09.861Z,94.40
2018-01-11T04:10:37.823Z,94.30
2018-01-11T04:13:05.421Z,94.40
2018-01-11T04:15:32.929Z,94.30
2018-01-11T04:18:00.407Z,94.00
2018-01-11T04:20:28.313Z,93.50
2018-01-11T04:22:55.857Z,93.50
2018-01-11T04:25:23.361Z,93.90
2018-01-11T04:27:51.234Z,94.00
2018-01-11T04:30:19.120Z,94.00
2018-01-11T04:32:46.616Z,94.00
2018-01-11T04:35:14.506Z,94.00
2018-01-11T04:37:42.090Z,94.00
2018-01-11T04:40:09.590Z,93.90
2018-01-11T04:42:37.487Z,93.90
2018-01-11T04:45:05.462Z,93.80
2018-01-11T04:47:32.973Z,93.80
2018-01-11T04:50:00.525Z,93.80
2018-01-11T04:52:28.113Z,94.00
2018-01-11T04:54:55.643Z,94.00
2018-01-11T04:57:23.122Z,94.10
2018-01-11T04:59:50.670Z,94.30
2018-01-11T05:02:18.546Z,94.30
2018-01-11T05:04:46.057Z,94.30
2018-01-11T05:07:13.931Z,94.40
2018-01-11T05:09:41.503Z,94.30
2018-01-11T05:12:08.994Z,94.30
2018-01-11T05:14:36.570Z,94.10
2018-01-11T05:17:04.078Z,93.90
2018-01-11T05:19:31.970Z,94.00
2018-01-11T05:21:59.868Z,93.90
2018-01-11T05:24:27.747Z,93.90
2018-01-11T05:26:55.653Z,93.80
2018-01-11T05:29:23.545Z,93.90
2018-01-11T05:31:51.439Z,93.60
2018-01-11T05:34:19.410Z,93.80
2018-01-11T05:36:46.924Z,93.90
2018-01-11T05:39:14.420Z,94.20
2018-01-11T05:41:41.913Z,94.10
2018-01-11T05:44:09.429Z,93.70
2018-01-11T05:46:36.917Z,93.60
2018-01-11T05:49:04.514Z,93.90
2018-01-11T05:51:31.998Z,94.00
2018-01-11T05:53:59.498Z,94.10
2018-01-11T05:56:27.374Z,94.40
2018-01-11T05:58:54.887Z,94.40
2018-01-11T06:01:22.371Z,94.30
2018-01-11T06:03:49.885Z,94.60
2018-01-11T06:06:17.387Z,94.70
2018-01-11T06:08:44.976Z,94.70
2018-01-11T06:11:12.491Z,94.70
2018-01-11T06:13:40.395Z,94.70
2018-01-11T06:16:07.949Z,94.80
2018-01-11T06:18:35.528Z,94.50
2018-01-11T06:21:03.049Z,94.50
2018-01-11T06:23:30.607Z,94.50
2018-01-11T06:25:58.503Z,94.60
2018-01-11T06:28:26.379Z,94.60
2018-01-11T06:30:53.889Z,94.70
2018-01-11T06:33:21.778Z,94.60
2018-01-11T06:35:49.675Z,94.50
2018-01-11T06:38:17.631Z,94.50
2018-01-11T06:40:45.229Z,94.50
2018-01-11T06:43:12.731Z,94.60
2018-01-11T06:45:40.618Z,94.60
2018-01-11T06:48:08.526Z,94.60
2018-01-11T06:50:36.079Z,94.60
2018-01-11T06:53:03.584Z,94.60
2018-01-11T06:55:31.472Z,94.30
2018-01-11T06:57:59.373Z,94.20
2018-01-11T07:00:27.345Z,94.10
2018-01-11T07:02:54.932Z,94.10
2018-01-11T07:05:22.416Z,94.10
2018-01-11T07:07:50.325Z,93.90
2018-01-11T07:10:17.891Z,93.90
2018-01-11T07:12:45.793Z,93.90
2018-01-11T07:15:13.693Z,93.80
2018-01-11T07:17:41.581Z,93.70
2018-01-11T07:20:09.475Z,93.50
2018-01-11T07:22:37.448Z,93.50
2018-01-11T07:25:04.956Z,93.50
2018-01-11T07:27:32.835Z,93.60
2018-01-11T07:30:00.737Z,93.60
2018-01-11T07:32:28.620Z,93.80
2018-01-11T07:34:56.540Z,94.00
2018-01-11T07:37:24.088Z,94.00
2018-01-11T07:39:51.597Z,94.00
2018-01-11T07:42:19.088Z,94.00
2018-01-11T07:44:46.602Z,94.00
2018-01-11T07:47:14.092Z,94.10
2018-01-11T07:49:41.593Z,93.90
2018-01-11T07:52:09.077Z,94.00
2018-01-11T07:54:36.582Z,93.90
2018-01-11T07:57:04.455Z,93.80
2018-01-11T07:59:31.965Z,93.80
2018-01-11T08:01:59.862Z,93.60
2018-01-11T08:04:27.754Z,93.90
2018-01-11T08:06:55.635Z,94.00
2018-01-11T08:09:23.533Z,93.80
2018-01-11T08:11:51.456Z,93.80
2018-01-11T08:14:18.960Z,93.80
2018-01-11T08:16:46.438Z,93.60
2018-01-11T08:19:13.935Z,94.00
2018-01-11T08:21:41.432Z,94.20
2018-01-11T08:24:08.906Z,94.20
2018-01-11T08:26:36.408Z,94.00
2018-01-11T08:29:03.898Z,93.80
2018-01-11T08:31:31.885Z,93.60
2018-01-11T08:33:59.515Z,93.60
2018-01-11T08:36:27.458Z,94.10
2018-01-11T08:38:54.934Z,94.10
2018-01-11T08:41:22.440Z,93.80
2018-01-11T08:43:50.340Z,94.10
2018-01-11T08:46:18.306Z,93.80
2018-01-11T08:48:45.786Z,93.80
2018-01-11T08:51:13.282Z,93.50
2018-01-11T08:53:40.754Z,93.60
2018-01-11T08:56:08.251Z,93.90
2018-01-11T08:58:35.829Z,93.70
2018-01-11T09:01:03.337Z,93.70
2018-01-11T09:03:30.908Z,93.50
2018-01-11T09:05:58.905Z,96.60
2018-01-11T09:08:26.782Z,91.10
2018-01-11T09:10:54.283Z,91.10
2018-01-11T09:13:22.220Z,90.50
2018-01-11T09:15:49.710Z,90.50
2018-01-11T09:18:17.196Z,91.20
2018-01-11T09:20:44.687Z,91.90
2018-01-11T09:23:12.168Z,92.40
2018-01-11T09:25:39.705Z,92.30
2018-01-11T09:28:07.555Z,92.20
2018-01-11T09:30:35.065Z,92.20
2018-01-11T09:33:02.539Z,92.50
2018-01-11T09:35:30.467Z,92.40
2018-01-11T09:37:57.940Z,92.40
2018-01-11T09:40:25.476Z,92.40
2018-01-11T09:42:52.977Z,92.20
2018-01-11T09:45:20.479Z,92.40
2018-01-11T09:47:48.001Z,92.90
2018-01-11T09:50:15.537Z,92.80
2018-01-11T09:52:43.094Z,93.00
2018-01-11T09:55:10.599Z,91.90
2018-01-11T09:57:38.095Z,91.70
2018-01-11T10:00:05.980Z,92.10
2018-01-11T10:02:33.882Z,91.20
2018-01-11T10:05:01.430Z,91.20
2018-01-11T10:07:28.921Z,91.30
2018-01-11T10:09:56.512Z,91.40
2018-01-11T10:12:24.003Z,91.40
2018-01-11T10:14:51.483Z,91.50
2018-01-11T10:17:19.064Z,92.00
2018-01-11T10:19:46.539Z,91.70
2018-01-11T10:22:14.046Z,91.10
2018-01-11T10:24:41.914Z,91.30
2018-01-11T10:27:09.421Z,91.30
2018-01-11T10:29:37.395Z,90.80
2018-01-11T10:32:05.307Z,91.00
2018-01-11T10:34:32.783Z,91.00
2018-01-11T10:37:00.675Z,90.90
2018-01-11T10:39:28.568Z,90.50
2018-01-11T10:41:56.469Z,90.50
2018-01-11T10:44:24.343Z,90.10
2018-01-11T10:46:51.915Z,90.10
2018-01-11T10:49:19.498Z,90.30
2018-01-11T10:51:47.029Z,90.20
2018-01-11T10:54:14.512Z,89.90
2018-01-11T10:56:42.061Z,89.90
2018-01-11T10:59:09.648Z,90.20
2018-01-11T11:01:42.946Z,90.00
2018-01-11T11:04:10.437Z,90.10
2018-01-11T11:06:37.975Z,89.70
2018-01-11T11:09:05.520Z,89.80
2018-01-11T11:11:33.023Z,89.70
2018-01-11T11:14:00.905Z,88.60
2018-01-11T11:16:28.874Z,88.40
2018-01-11T11:18:56.458Z,88.40
2018-01-11T11:21:23.952Z,88.60
2018-01-11T11:23:51.559Z,88.20
2018-01-11T11:26:19.435Z,87.30
2018-01-11T11:28:46.949Z,87.30
2018-01-11T11:31:14.431Z,86.10
2018-01-11T11:33:41.940Z,86.80
2018-01-11T11:36:09.429Z,85.30
2018-01-11T11:38:36.942Z,85.00
2018-01-11T11:41:04.429Z,85.50
2018-01-11T11:43:32.008Z,85.40
2018-01-11T11:45:59.493Z,86.20
2018-01-11T11:48:27.001Z,86.80
2018-01-11T11:50:54.979Z,85.70
2018-01-11T11:53:22.552Z,85.60
2018-01-11T11:55:50.035Z,86.00
2018-01-11T11:58:17.535Z,86.40
2018-01-11T12:00:45.522Z,85.90
2018-01-11T12:03:13.046Z,85.90
2018-01-11T12:05:40.537Z,85.60
2018-01-11T12:08:08.032Z,85.50
2018-01-11T12:10:35.511Z,86.30
2018-01-11T12:13:03.038Z,85.90
2018-01-11T12:15:30.534Z,86.50
2018-01-11T12:17:58.441Z,85.70
2018-01-11T12:20:25.931Z,85.60
2018-01-11T12:22:53.480Z,85.10
2018-01-11T12:25:20.992Z,86.00
2018-01-11T12:27:48.486Z,85.30
2018-01-11T12:30:15.993Z,84.80
2018-01-11T12:32:43.509Z,82.00
2018-01-11T12:35:10.995Z,79.90
2018-01-11T12:37:38.479Z,81.70
2018-01-11T12:40:06.474Z,82.20
2018-01-11T12:42:34.369Z,82.20
2018-01-11T12:45:02.278Z,82.70
2018-01-11T12:47:30.243Z,83.20
2018-01-11T12:49:57.833Z,83.20
2018-01-11T12:52:25.410Z,82.70
2018-01-11T12:54:52.995Z,80.90
2018-01-11T12:57:20.475Z,81.10
2018-01-11T12:59:47.977Z,82.20
2018-01-11T13:02:15.951Z,81.50
2018-01-11T13:04:43.457Z,81.50
2018-01-11T13:07:11.349Z,83.70
2018-01-11T13:09:39.250Z,84.50
2018-01-11T13:12:07.132Z,83.50
2018-01-11T13:14:35.032Z,82.90
2018-01-11T13:17:02.942Z,83.30
2018-01-11T13:19:30.443Z,83.30
2018-01-11T13:21:57.933Z,84.20
2018-01-11T13:24:25.441Z,84.10
2018-01-11T13:26:52.927Z,84.10
2018-01-11T13:29:20.520Z,84.40
2018-01-11T13:31:48.013Z,84.00
2018-01-11T13:34:15.517Z,84.10
2018-01-11T13:36:42.996Z,83.90
2018-01-11T13:39:10.993Z,83.80
2018-01-11T13:41:38.544Z,83.80
2018-01-11T13:44:06.130Z,83.20
2018-01-11T13:46:33.606Z,83.30
2018-01-11T13:49:01.113Z,83.00
2018-01-11T13:51:29.097Z,83.20
2018-01-11T13:53:56.676Z,83.20
2018-01-11T13:56:24.155Z,83.10
2018-01-11T13:58:51.674Z,83.50
2018-01-11T14:01:19.263Z,82.80
2018-01-11T14:03:46.764Z,82.20
2018-01-11T14:06:14.274Z,82.60
2018-01-11T14:08:41.746Z,82.20
2018-01-11T14:11:09.299Z,82.50
2018-01-11T14:13:36.844Z,80.60
2018-01-11T14:16:04.340Z,80.50
2018-01-11T14:18:32.312Z,80.90
2018-01-11T14:20:59.909Z,80.90
2018-01-11T14:23:27.396Z,81.00
2018-01-11T14:25:55.000Z,80.50
2018-01-11T14:28:22.880Z,80.70
2018-01-11T14:30:50.781Z,80.40
2018-01-11T14:33:18.756Z,80.90
2018-01-11T14:35:46.333Z,80.90
2018-01-11T14:38:13.823Z,81.60
2018-01-11T14:40:42.216Z,81.10
2018-01-11T14:43:09.709Z,81.10
2018-01-11T14:45:37.226Z,80.70
2018-01-11T14:48:04.767Z,80.80
2018-01-11T14:50:32.353Z,80.90
2018-01-11T14:52:59.844Z,80.40
2018-01-11T14:55:27.330Z,80.70
2018-01-11T14:57:54.825Z,80.80
2018-01-11T15:00:22.724Z,77.00
2018-01-11T15:02:50.725Z,77.80
2018-01-11T15:05:18.719Z,77.60
2018-01-11T15:07:46.692Z,79.00
2018-01-11T15:10:14.299Z,79.00
2018-01-11T15:12:41.860Z,79.90
2018-01-11T15:15:09.443Z,78.80
2018-01-11T15:17:36.953Z,79.10
2018-01-11T15:20:04.464Z,79.30
2018-01-11T15:22:31.948Z,79.50
2018-01-11T15:24:59.477Z,80.10
2018-01-11T15:27:26.984Z,80.70
2018-01-11T15:29:54.491Z,80.70
2018-01-11T15:32:21.983Z,81.40
2018-01-11T15:34:49.584Z,82.20
2018-01-11T15:37:17.088Z,82.60
2018-01-11T15:39:44.576Z,83.00
2018-01-11T15:42:12.480Z,84.10
2018-01-11T15:44:40.376Z,84.20
2018-01-11T15:47:08.353Z,84.40
2018-01-11T15:49:35.855Z,84.40
2018-01-11T15:52:03.751Z,84.50
2018-01-11T15:54:31.252Z,84.50
2018-01-11T15:56:58.761Z,84.60
2018-01-11T15:59:26.260Z,84.90
2018-01-11T16:01:53.785Z,85.00
2018-01-11T16:04:21.348Z,85.20
2018-01-11T16:06:49.332Z,85.10
2018-01-11T16:09:16.810Z,85.20
2018-01-11T16:11:44.310Z,85.40
2018-01-11T16:14:12.183Z,84.90
2018-01-11T16:16:39.679Z,84.70
2018-01-11T16:19:07.251Z,84.30
2018-01-11T16:21:34.762Z,84.30
2018-01-11T16:24:02.726Z,84.40
2018-01-11T16:26:30.238Z,84.40
2018-01-11T16:28:58.231Z,84.60
2018-01-11T16:31:26.213Z,84.40
2018-01-11T16:33:53.754Z,84.40
2018-01-11T16:36:21.257Z,84.50
2018-01-11T16:38:48.790Z,84.90
2018-01-11T16:41:16.305Z,84.70
2018-01-11T16:43:43.855Z,84.90
2018-01-11T16:46:11.844Z,84.90
2018-01-11T16:48:39.740Z,84.90
2018-01-11T16:51:07.694Z,84.70
2018-01-11T16:53:35.320Z,84.70
2018-01-11T16:56:02.863Z,85.10
2018-01-11T16:58:30.442Z,85.10
2018-01-11T17:00:58.048Z,85.40
2018-01-11T17:03:25.660Z,85.20
2018-01-11T17:05:53.139Z,85.20
2018-01-11T17:08:21.073Z,85.50
2018-01-11T17:10:48.547Z,85.50
2018-01-11T17:13:16.173Z,85.70
2018-01-11T17:15:43.753Z,85.90
2018-01-11T17:18:11.311Z,85.80
2018-01-11T17:20:38.786Z,85.60
2018-01-11T17:23:06.440Z,85.50
2018-01-11T17:25:33.957Z,85.70
2018-01-11T17:28:01.469Z,85.60
2018-01-11T17:30:28.947Z,85.60
2018-01-11T17:32:56.465Z,85.90
2018-01-11T17:35:23.986Z,86.10
2018-01-11T17:37:51.535Z,86.00
2018-01-11T17:40:19.430Z,86.00
2018-01-11T17:42:47.413Z,86.00
2018-01-11T17:45:14.921Z,86.00
2018-01-11T17:47:42.440Z,85.80
2018-01-11T17:50:09.965Z,85.90
2018-01-11T17:52:37.970Z,85.70
2018-01-11T17:55:05.480Z,85.80
2018-01-11T17:57:32.983Z,85.80
2018-01-11T18:00:00.513Z,86.20
2018-01-11T18:02:28.434Z,86.30
2018-01-11T18:04:56.068Z,86.30
2018-01-11T18:07:23.564Z,86.50
2018-01-11T18:09:51.048Z,86.80
2018-01-11T18:12:18.546Z,87.20
2018-01-11T18:14:46.047Z,87.10
2018-01-11T18:17:13.585Z,87.20
2018-01-11T18:19:41.092Z,87.10
2018-01-11T18:22:08.963Z,87.30
2018-01-11T18:24:36.467Z,87.30
2018-01-11T18:27:04.344Z,87.60
2018-01-11T18:29:32.241Z,87.60
2018-01-11T18:32:00.216Z,87.80
2018-01-11T18:34:27.711Z,87.80
2018-01-11T18:36:55.279Z,87.70
2018-01-11T18:39:22.785Z,87.80
2018-01-11T18:41:50.655Z,88.00
2018-01-11T18:44:18.147Z,88.00
2018-01-11T18:46:45.632Z,88.00
2018-01-11T18:49:13.207Z,88.10
2018-01-11T18:51:40.805Z,88.20
2018-01-11T18:54:08.312Z,88.20
2018-01-11T18:56:35.795Z,88.40
2018-01-11T18:59:03.305Z,88.50
2018-01-11T19:01:30.782Z,88.40
2018-01-11T19:03:58.293Z,88.40
2018-01-11T19:06:25.771Z,88.50
2018-01-11T19:08:53.266Z,88.60
2018-01-11T19:11:20.886Z,88.50
2018-01-11T19:13:48.855Z,88.30
2018-01-11T19:16:17.145Z,88.20
2018-01-11T19:18:44.723Z,88.10
2018-01-11T19:21:12.213Z,88.30
2018-01-11T19:23:39.809Z,88.10
2018-01-11T19:26:07.321Z,88.10
2018-01-11T19:28:34.833Z,88.20
2018-01-11T19:31:02.325Z,88.40
2018-01-11T19:33:29.833Z,88.50
2018-01-11T19:35:57.348Z,88.60
2018-01-11T19:38:25.228Z,88.30
2018-01-11T19:40:53.128Z,88.40
2018-01-11T19:43:21.092Z,88.60
2018-01-11T19:45:48.605Z,88.60
2018-01-11T19:48:16.602Z,88.30
2018-01-11T19:50:44.164Z,88.40
2018-01-11T19:53:11.739Z,88.20
2018-01-11T19:55:39.254Z,88.30
2018-01-11T19:58:07.194Z,88.10
2018-01-11T20:00:34.704Z,88.10
2018-01-11T20:03:02.197Z,88.10
2018-01-11T20:05:29.699Z,88.40
2018-01-11T20:07:57.621Z,88.60
2018-01-11T20:10:25.132Z,88.60
2018-01-11T20:12:52.632Z,88.50
2018-01-11T20:15:20.167Z,88.80
2018-01-11T20:17:47.711Z,88.60
2018-01-11T20:20:15.218Z,88.70
2018-01-11T20:22:42.776Z,88.50
2018-01-11T20:25:10.283Z,88.50
2018-01-11T20:27:38.159Z,88.70
2018-01-11T20:30:06.191Z,88.70
2018-01-11T20:32:33.679Z,88.70
2018-01-11T20:35:01.176Z,89.00
2018-01-11T20:37:29.587Z,88.80
2018-01-11T20:39:57.110Z,88.70
2018-01-11T20:42:24.632Z,89.10
2018-01-11T20:44:52.123Z,89.20
2018-01-11T20:47:19.665Z,89.00
2018-01-11T20:49:47.597Z,88.50
2018-01-11T20:52:15.109Z,88.50
2018-01-11T20:54:42.695Z,88.90
2018-01-11T20:57:10.205Z,88.90
2018-01-11T20:59:38.111Z,89.20
2018-01-11T21:02:06.177Z,89.20
2018-01-11T21:04:33.671Z,89.20
2018-01-11T21:07:01.385Z,89.20
2018-01-11T21:09:28.898Z,88.90
2018-01-11T21:11:56.565Z,89.20
2018-01-11T21:14:24.096Z,89.20
2018-01-11T21:16:51.915Z,89.30
2018-01-11T21:19:19.461Z,89.30
2018-01-11T21:21:47.087Z,89.50
2018-01-11T21:24:14.608Z,89.60
2018-01-11T21:26:42.101Z,89.40
2018-01-11T21:29:09.624Z,89.20
2018-01-11T21:31:37.514Z,89.50
2018-01-11T21:34:05.110Z,89.50
2018-01-11T21:36:33.001Z,89.80
2018-01-11T21:39:00.903Z,89.90
2018-01-11T21:41:28.466Z,89.90
2018-01-11T21:43:55.951Z,89.90
2018-01-11T21:46:23.453Z,89.50
2018-01-11T21:48:51.421Z,90.00
2018-01-11T21:51:19.021Z,90.00
2018-01-11T21:53:46.517Z,90.10
2018-01-11T21:58:48.427Z,90.20
2018-01-11T22:01:15.936Z,90.20
2018-01-11T22:03:43.423Z,90.20
2018-01-11T22:06:10.937Z,90.30
2018-01-11T22:08:38.464Z,90.60
2018-01-11T22:11:06.461Z,90.40
2018-01-11T22:13:34.339Z,90.60
2018-01-11T22:16:01.831Z,90.60
2018-01-11T22:18:29.740Z,90.40
2018-01-11T22:20:57.629Z,90.40
2018-01-11T22:23:25.134Z,90.30
2018-01-11T22:25:52.611Z,90.00
2018-01-11T22:28:20.124Z,90.20
2018-01-11T22:30:47.616Z,90.30
2018-01-11T22:33:15.200Z,90.20
2018-01-11T22:35:42.688Z,90.20
2018-01-11T22:38:10.186Z,90.10
2018-01-11T22:40:37.701Z,90.30
2018-01-11T22:43:05.585Z,90.40
2018-01-11T22:45:33.561Z,90.60
2018-01-11T22:48:01.149Z,90.60
2018-01-11T22:50:28.863Z,90.60
2018-01-11T22:52:56.160Z,90.70
2018-01-11T22:55:23.671Z,90.80
2018-01-11T22:57:51.176Z,91.00
2018-01-11T23:00:23.684Z,91.00
2018-01-11T23:02:51.168Z,91.20
2018-01-11T23:05:18.693Z,91.20
2018-01-11T23:07:46.232Z,91.20
2018-01-11T23:10:13.709Z,91.10
2018-01-11T23:12:41.213Z,90.50
2018-01-11T23:15:09.096Z,90.90
2018-01-11T23:17:36.592Z,90.90
2018-01-11T23:20:04.464Z,91.60
2018-01-11T23:22:31.958Z,91.60
2018-01-11T23:24:59.870Z,91.40
2018-01-11T23:27:27.833Z,91.90
2018-01-11T23:29:55.415Z,91.90
2018-01-11T23:32:22.920Z,92.60
2018-01-11T23:34:50.795Z,92.30
2018-01-11T23:37:18.381Z,92.30
2018-01-11T23:39:46.285Z,92.60
2018-01-11T23:42:14.181Z,92.60
2018-01-11T23:44:42.098Z,92.50
2018-01-11T23:47:09.646Z,92.50
2018-01-11T23:49:37.229Z,92.60
2018-01-11T23:52:04.817Z,92.60
2018-01-11T23:54:32.809Z,92.80
2018-01-11T23:57:00.817Z,92.80
2018-01-11T23:59:28.783Z,92.80
